Latest Weather Observations for Bankstown

IDN60801

Issued at 8:52 am EDT Tuesday 22 January 2019 (issued every 10 minutes, with the page automatically refreshed every 10 minutes)

About weather observations | Map of weather stations | Latest weather observations for NSW | Other Formats
Station Details ID: 066137 Name: BANKSTOWN AIRPORT AWS Lat: -33.92 Lon: 150.99 Height: 6.5 m
Data from the previous 72 hours. | See also: Recent months at Bankstown
Date/Time
EDT
Temp
°C
App
Temp
°C
Dew
Point
°C
Rel
Hum
%
Delta-T
°C
Wind Press
QNH
hPa
Press
MSL
hPa
Rain since
9am
mm
Dir  Spd
km/h
Gust
km/h
Spd
kts
Gust
kts
22/08:30am 24.5 27.3 20.8 80 2.4 W 7 9 4 5 1016.1 1016.1 7.0
22/08:27am 24.3 26.9 20.4 79 2.5 W 7 11 4 6 1016.1 1016.1 7.0
22/08:00am 23.6 27.7 20.7 84 1.9 CALM 0 0 0 0 1016.0 1016.0 7.0
22/07:48am 23.1 27.1 20.6 86 1.6 CALM 0 0 0 0 1015.9 1015.9 7.0
22/07:30am 22.6 26.1 20.3 87 1.5 W 2 6 1 3 1015.6 1015.6 7.0
22/07:00am 21.6 25.5 20.4 93 0.8 CALM 0 0 0 0 1015.5 1015.5 7.0
22/06:48am 21.5 25.5 20.5 94 0.6 CALM 0 0 0 0 1015.5 1015.5 7.0
22/06:30am 20.9 24.1 19.7 93 0.8 W 2 7 1 4 1015.4 1015.4 7.0
22/06:00am 20.8 24.3 19.6 93 0.8 CALM 0 0 0 0 1015.1 1015.1 7.0
22/05:30am 21.5 25.4 20.3 93 0.8 CALM 0 0 0 0 1015.0 1015.0 7.0
22/05:00am 21.1 23.7 20.1 94 0.6 W 6 6 3 3 1015.0 1015.0 7.0
22/04:30am 21.4 25.1 19.9 91 1.0 CALM 0 0 0 0 1014.9 1014.9 7.0
22/04:00am 21.8 25.4 19.7 88 1.3 CALM 0 0 0 0 1015.0 1015.0 7.0
22/03:30am 21.9 25.7 20.2 90 1.1 CALM 0 0 0 0 1015.3 1015.3 7.0
22/03:00am 22.2 26.0 20.1 88 1.3 CALM 0 0 0 0 1015.5 1015.5 7.0
22/02:30am 22.1 25.1 20.0 88 1.3 WSW 4 6 2 3 1015.7 1015.7 7.0
22/02:00am 22.7 26.4 20.0 85 1.7 CALM 0 0 0 0 1015.9 1015.9 7.0
22/01:30am 23.1 25.5 20.1 83 1.9 E 7 9 4 5 1015.9 1015.9 7.0
22/01:00am 23.4 26.0 20.0 81 2.2 E 6 9 3 5 1016.2 1016.2 7.0
22/12:30am 23.5 25.8 19.8 80 2.4 ENE 7 11 4 6 1016.5 1016.5 7.0
22/12:00am 23.9 26.7 20.4 81 2.3 ENE 6 7 3 4 1016.7 1016.7 7.0
 
Date/Time
EDT
Temp
°C
App
Temp
°C
Dew
Point
°C
Rel
Hum
%
Delta-T
°C
Wind Press
QNH
hPa
Press
MSL
hPa
Rain since
9am
mm
Dir  Spd
km/h
Gust
km/h
Spd
kts
Gust
kts
21/11:30pm 24.0 26.3 20.7 82 2.2 ESE 9 11 5 6 1017.0 1017.0 7.0
21/11:00pm 23.7 27.0 20.8 84 1.9 SE 4 7 2 4 1017.0 1017.0 7.0
21/10:30pm 24.0 26.7 20.7 82 2.2 S 7 11 4 6 1017.4 1017.4 7.0
21/10:00pm 24.5 27.4 21.0 81 2.3 S 7 11 4 6 1016.9 1016.9 7.0
21/09:30pm 24.6 26.3 20.9 80 2.4 NNE 13 20 7 11 1016.3 1016.3 7.0
21/09:00pm 25.0 27.2 21.1 79 2.6 NE 11 17 6 9 1016.4 1016.4 7.0
21/08:30pm 25.4 27.6 21.1 77 2.8 E 11 15 6 8 1016.5 1016.5 7.0
21/08:00pm 25.8 28.3 21.0 75 3.2 E 9 13 5 7 1016.2 1016.2 7.0
21/07:30pm 26.2 28.8 21.2 74 3.3 ESE 9 13 5 7 1016.1 1016.1 7.0
21/07:00pm 26.4 28.8 20.9 72 3.6 ESE 9 15 5 8 1016.0 1016.0 7.0
21/06:30pm 26.7 28.3 20.8 70 3.9 ENE 13 17 7 9 1015.8 1015.8 7.0
21/06:00pm 26.6 28.3 20.9 71 3.8 E 13 20 7 11 1015.7 1015.7 7.0
21/05:30pm 26.7 28.3 20.8 70 3.9 ENE 13 19 7 10 1015.9 1015.9 7.0
21/05:00pm 26.7 28.3 20.8 70 3.9 E 13 19 7 10 1016.0 1016.0 7.0
21/04:30pm 26.3 28.1 20.4 70 3.9 ESE 11 17 6 9 1016.1 1016.1 7.0
21/04:00pm 26.4 28.0 20.7 71 3.7 E 13 24 7 13 1016.3 1016.3 7.0
21/03:30pm 25.9 27.3 21.1 75 3.2 NE 15 20 8 11 1016.7 1016.7 7.0
21/03:00pm 25.7 27.9 21.8 79 2.6 ENE 13 20 7 11 1017.1 1017.1 7.0
21/02:57pm 25.5 27.9 21.6 79 2.6 ENE 11 20 6 11 1017.2 1017.2 7.0
21/02:47pm 24.8 27.2 21.5 82 2.2 ESE 11 19 6 10 1017.3 1017.3 7.0
21/02:30pm 25.0 29.0 23.1 89 1.3 SSE 7 11 4 6 1017.5 1017.5 7.0
21/02:00pm 23.4 25.9 21.8 91 1.1 SSW 11 13 6 7 1017.8 1017.8 7.0
21/01:30pm 23.1 25.6 21.7 92 0.9 WSW 11 15 6 8 1018.0 1018.0 6.8
21/01:16pm 23.3 26.3 21.9 92 0.9 W 9 11 5 6 1018.0 1018.0 6.8
21/01:00pm 23.0 25.0 21.6 92 0.9 NNW 13 19 7 10 1018.1 1018.1 6.2
21/12:42pm 23.0 24.6 20.7 87 1.5 NNW 13 19 7 10 1018.3 1018.3 1.8
21/12:30pm 25.1 26.7 20.8 77 2.8 ENE 13 19 7 10 1018.5 1018.5 0.2
21/12:00pm 26.1 27.7 20.7 72 3.5 E 13 19 7 10 1018.6 1018.6 0.2
21/11:30am 25.6 27.5 20.6 74 3.3 NE 11 15 6 8 1018.9 1018.9 0.2
21/11:00am 25.4 28.7 21.5 79 2.6 NE 6 9 3 5 1019.2 1019.2 0.2
21/10:30am 24.3 28.2 20.4 79 2.5 CALM 0 0 0 0 1019.5 1019.5 0.0
21/10:00am 24.2 26.8 20.5 80 2.4 SE 7 11 4 6 1019.5 1019.5 0.0
21/09:35am 23.9 26.2 20.6 82 2.2 SE 9 11 5 6 1019.5 1019.5 0.0
21/09:30am 23.9 26.3 20.8 83 2.0 SE 9 13 5 7 1019.5 1019.5 0.0
21/09:00am 23.4 25.3 20.5 84 1.9 ESE 11 15 6 8 1019.7 1019.7 1.8
21/08:30am 23.1 25.1 20.8 87 1.5 ESE 11 19 6 10 1019.3 1019.3 1.8
21/08:00am 22.4 23.5 20.5 89 1.2 E 15 22 8 12 1019.0 1019.0 1.8
21/07:30am 22.2 23.8 20.7 91 1.0 E 13 20 7 11 1018.4 1018.4 1.8
21/07:00am 22.1 22.5 20.7 92 0.9 SE 19 24 10 13 1017.5 1017.5 1.6
21/06:48am 22.1 22.9 20.6 91 1.0 ESE 17 20 9 11 1017.6 1017.6 1.2
21/06:30am 22.1 22.9 20.7 92 0.9 SE 17 20 9 11 1017.3 1017.3 1.2
21/06:00am 22.1 22.9 20.7 92 0.9 SE 17 20 9 11 1017.5 1017.5 1.2
21/05:30am 22.2 24.2 20.8 92 0.9 SE 11 17 6 9 1017.6 1017.6 1.2
21/05:00am 22.2 25.5 20.8 92 0.9 ESE 4 7 2 4 1018.1 1018.1 1.2
21/04:45am 22.1 24.9 20.9 93 0.8 E 7 11 4 6 1018.2 1018.2 1.2
21/04:30am 22.1 24.6 21.1 94 0.7 ENE 9 13 5 7 1018.6 1018.6 1.2
21/04:20am 22.1 24.6 21.1 94 0.7 NNE 9 11 5 6 1018.8 1018.8 1.2
21/04:00am 21.9 24.9 20.9 94 0.6 NNW 6 11 3 6 1018.9 1018.9 1.2
21/03:30am 22.0 25.3 20.8 93 0.8 WSW 4 7 2 4 1019.3 1019.3 0.2
21/03:28am 22.0 25.0 20.8 93 0.8 WSW 6 7 3 4 1019.4 1019.4 0.2
21/03:18am 22.0 24.8 20.8 93 0.8 WSW 7 7 4 4 1019.6 1019.6 0.2
21/03:17am 22.1 24.9 20.9 93 0.8 WSW 7 7 4 4 1019.6 1019.6 0.2
21/03:07am 22.0 24.8 20.8 93 0.8 W 7 9 4 5 1019.8 1019.8 0.2
21/03:00am 22.0 24.8 20.8 93 0.8 W 7 11 4 6 1019.8 1019.8 0.2
21/02:57am 22.0 24.4 20.8 93 0.8 W 9 11 5 6 1019.9 1019.9 0.2
21/02:30am 22.1 25.0 20.7 92 0.9 WSW 6 7 3 4 1020.2 1020.2 0.0
21/02:29am 22.1 25.0 20.7 92 0.9 WSW 6 7 3 4 1020.2 1020.2 0.0
21/02:22am 22.1 25.0 20.7 92 0.9 WSW 6 9 3 5 1020.2 1020.2 0.0
21/02:15am 22.1 24.8 20.7 92 0.9 WSW 7 9 4 5 1020.3 1020.3 0.0
21/02:02am 22.3 24.6 20.6 90 1.1 W 9 9 5 5 1020.2 1020.2 0.0
21/02:00am 22.3 24.6 20.6 90 1.1 W 9 9 5 5 1020.2 1020.2 0.0
21/01:38am 22.8 25.1 19.8 83 1.9 N 7 9 4 5 1020.0 1020.0 0.0
21/01:30am 23.2 25.5 19.8 81 2.2 N 7 9 4 5 1020.0 1020.0 0.0
21/01:00am 23.3 27.0 19.9 81 2.2 CALM 0 6 0 3 1019.8 1019.8 0.0
21/12:30am 23.3 27.0 19.9 81 2.2 CALM 0 0 0 0 1019.9 1019.9 0.0
21/12:00am 23.2 25.6 20.0 82 2.1 ENE 7 13 4 7 1019.7 1019.7 0.0
 
Date/Time
EDT
Temp
°C
App
Temp
°C
Dew
Point
°C
Rel
Hum
%
Delta-T
°C
Wind Press
QNH
hPa
Press
MSL
hPa
Rain since
9am
mm
Dir  Spd
km/h
Gust
km/h
Spd
kts
Gust
kts
20/11:30pm 23.0 24.2 19.8 82 2.1 ESE 13 17 7 9 1019.5 1019.5 0.0
20/11:00pm 23.5 24.5 19.4 78 2.6 ESE 13 17 7 9 1020.0 1020.0 0.0
20/10:30pm 23.6 24.5 19.3 77 2.7 ESE 13 17 7 9 1020.3 1020.3 0.0
20/10:00pm 23.5 24.2 18.8 75 3.0 ESE 13 17 7 9 1020.0 1020.0 0.0
20/09:30pm 23.4 23.2 18.5 74 3.1 ESE 17 19 9 10 1019.6 1019.6 0.0
20/09:00pm 23.5 24.1 18.6 74 3.1 ESE 13 19 7 10 1019.3 1019.3 0.0
20/08:30pm 23.7 23.9 18.6 73 3.2 ESE 15 20 8 11 1019.0 1019.0 0.0
20/08:00pm 24.0 24.0 18.2 70 3.6 ESE 15 20 8 11 1018.3 1018.3 0.0
20/07:30pm 24.4 24.9 18.3 69 3.8 E 13 19 7 10 1018.2 1018.2 0.0
20/07:00pm 24.7 25.3 18.6 69 3.9 NE 13 19 7 10 1017.9 1017.9 0.0
20/06:30pm 25.0 25.3 18.7 68 4.0 ENE 15 22 8 12 1017.6 1017.6 0.0
20/06:00pm 25.3 25.9 18.7 67 4.2 ENE 13 20 7 11 1017.2 1017.2 0.0
20/05:30pm 25.4 26.0 18.6 66 4.3 ENE 13 20 7 11 1017.2 1017.2 0.0
20/05:00pm 25.7 26.4 18.9 66 4.3 ENE 13 19 7 10 1017.2 1017.2 0.0
20/04:30pm 25.5 26.2 18.9 67 4.2 ENE 13 20 7 11 1017.7 1017.7 0.0
20/04:00pm 25.3 26.1 19.0 68 4.0 NE 13 19 7 10 1018.0 1018.0 0.0
20/03:30pm 25.9 27.2 19.3 67 4.2 NE 11 17 6 9 1018.2 1018.2 0.0
20/03:00pm 25.8 26.6 19.0 66 4.3 E 13 17 7 9 1018.6 1018.6 0.0
20/02:30pm 25.7 26.3 18.6 65 4.5 NE 13 20 7 11 1019.0 1019.0 0.0
20/02:00pm 25.2 26.5 18.4 66 4.3 NE 9 19 5 10 1019.6 1019.6 0.0
20/01:30pm 24.8 25.7 18.3 67 4.1 NE 11 17 6 9 1019.9 1019.9 0.0
20/01:00pm 24.6 26.0 17.3 64 4.5 ESE 6 11 3 6 1020.3 1020.3 0.0
20/12:30pm 24.6 26.0 17.8 66 4.3 SE 7 15 4 8 1020.6 1020.6 0.0
20/12:00pm 23.9 24.7 17.2 66 4.1 ESE 9 15 5 8 1020.9 1020.9 0.0
20/11:30am 24.0 25.3 17.0 65 4.3 E 6 11 3 6 1021.1 1021.1 0.0
20/11:00am 23.6 25.0 17.3 67 3.9 ESE 6 11 3 6 1021.3 1021.3 0.0
20/10:30am 23.2 24.6 17.7 71 3.4 SW 7 11 4 6 1021.7 1021.7 0.0
20/10:00am 22.7 23.9 16.9 70 3.5 SE 6 11 3 6 1021.7 1021.7 0.0
20/09:30am 22.5 23.7 17.4 73 3.1 SSE 7 13 4 7 1021.6 1021.6 0.0
20/09:00am 22.2 23.0 17.3 74 3.0 SSE 9 15 5 8 1021.5 1021.5 0.0
20/08:30am 21.7 22.0 16.9 74 2.9 SSE 11 13 6 7 1021.5 1021.5 0.0
20/08:00am 21.9 22.6 17.1 74 2.9 SE 9 13 5 7 1021.1 1021.1 0.0
20/07:30am 21.5 21.8 17.1 76 2.7 SSE 11 15 6 8 1020.9 1020.9 0.0
20/07:00am 21.5 21.4 16.9 75 2.8 SSE 13 17 7 9 1020.8 1020.8 0.0
20/06:30am 21.5 21.8 16.9 75 2.8 SSE 11 13 6 7 1020.4 1020.4 0.0
20/06:00am 21.2 21.9 17.0 77 2.6 SSW 9 9 5 5 1020.1 1020.1 0.0
20/05:30am 21.1 21.7 16.9 77 2.6 SSW 9 11 5 6 1020.1 1020.1 0.0
20/05:00am 21.1 21.7 16.9 77 2.6 SSW 9 11 5 6 1019.9 1019.9 0.0
20/04:30am 21.2 22.3 17.0 77 2.6 WSW 7 9 4 5 1019.8 1019.8 0.0
20/04:00am 21.2 21.9 17.0 77 2.6 SSW 9 11 5 6 1019.7 1019.7 0.0
20/03:30am 21.3 22.5 17.3 78 2.5 SW 7 9 4 5 1019.8 1019.8 0.0
20/03:00am 21.2 22.0 17.2 78 2.4 SSW 9 11 5 6 1020.0 1020.0 0.0
20/02:30am 21.2 22.3 17.2 78 2.4 SW 7 9 4 5 1020.4 1020.4 0.0
20/02:00am 21.2 22.4 17.4 79 2.3 SW 7 9 4 5 1020.7 1020.7 0.0
20/01:30am 21.3 22.1 17.3 78 2.5 SW 9 11 5 6 1021.1 1021.1 0.0
20/01:00am 21.5 21.9 17.3 77 2.6 S 11 17 6 9 1021.5 1021.5 0.0
20/12:30am 21.8 21.9 17.4 76 2.7 SSE 13 17 7 9 1021.7 1021.7 0.0
20/12:00am 21.7 21.6 16.9 74 2.9 S 13 19 7 10 1021.9 1021.9 0.0
 
Date/Time
EDT
Temp
°C
App
Temp
°C
Dew
Point
°C
Rel
Hum
%
Delta-T
°C
Wind Press
QNH
hPa
Press
MSL
hPa
Rain since
9am
mm
Dir  Spd
km/h
Gust
km/h
Spd
kts
Gust
kts
19/11:30pm 22.0 21.5 16.9 73 3.1 SSE 15 19 8 10 1021.8 1021.8 0.0
19/11:00pm 22.3 21.2 17.2 73 3.1 SSE 19 22 10 12 1021.6 1021.6 0.0
19/10:30pm 22.2 21.4 17.1 73 3.1 SSE 17 22 9 12 1021.6 1021.6 0.0
19/10:00pm 22.2 20.9 16.9 72 3.2 SSE 19 26 10 14 1021.4 1021.4 0.0
19/09:30pm 21.9 21.2 17.3 75 2.8 SSE 17 26 9 14 1021.2 1021.2 0.0
19/09:00pm 21.8 20.6 17.6 77 2.6 SSE 20 26 11 14 1021.0 1021.0 0.0
19/08:30pm 22.0 20.6 18.0 78 2.5 SSE 22 32 12 17 1020.5 1020.5 0.0
19/08:00pm 22.6 21.0 17.5 73 3.1 SSE 22 28 12 15 1019.7 1019.7 0.0
19/07:30pm 22.7 21.2 17.6 73 3.2 SSE 22 32 12 17 1019.3 1019.3 0.0
19/07:00pm 22.8 20.5 17.7 73 3.2 SSE 26 33 14 18 1019.0 1019.0 0.0
19/06:30pm 23.1 21.3 17.8 72 3.3 SSE 24 32 13 17 1018.5 1018.5 0.0
19/06:00pm 23.4 21.9 17.8 71 3.5 SSE 22 32 12 17 1018.4 1018.4 0.0
19/05:30pm 23.8 21.7 18.0 70 3.6 SSE 26 33 14 18 1018.1 1018.1 0.0
19/05:00pm 23.7 21.9 17.9 70 3.6 SSE 24 30 13 16 1018.1 1018.1 0.0
19/04:30pm 24.0 21.0 17.7 68 3.9 SSE 30 39 16 21 1018.0 1018.0 0.0
19/04:00pm 24.5 21.1 17.7 66 4.2 SSE 32 44 17 24 1018.1 1018.1 0.0
19/03:30pm 24.0 21.1 18.0 69 3.8 SE 30 41 16 22 1018.2 1018.2 0.0
19/03:00pm 23.9 20.0 17.9 69 3.7 SSE 35 43 19 23 1018.2 1018.2 0.0
19/02:30pm 24.1 21.3 18.1 69 3.8 SSE 30 41 16 22 1018.4 1018.4 0.0
19/02:00pm 25.2 22.0 18.6 67 4.2 SSE 33 43 18 23 1018.2 1018.2 0.0
19/01:30pm 24.4 21.3 18.3 69 3.8 SSE 32 44 17 24 1018.1 1018.1 0.0
19/01:00pm 24.3 21.6 18.5 70 3.7 SSE 30 43 16 23 1018.2 1018.2 0.0
19/12:30pm 24.0 21.5 18.9 73 3.2 SSE 30 39 16 21 1018.0 1018.0 0.0
19/12:00pm 24.0 21.6 19.1 74 3.1 S 30 39 16 21 1018.0 1018.0 0.0
19/11:30am 24.7 23.1 20.0 75 3.0 S 28 37 15 20 1017.5 1017.5 0.0
19/11:00am 26.1 23.5 20.0 69 4.0 SSE 33 46 18 25 1016.7 1016.7 0.0
19/10:30am 27.7 27.6 20.0 63 5.0 SE 20 32 11 17 1016.3 1016.3 0.0
19/10:00am 27.5 29.6 20.1 64 4.8 SE 9 15 5 8 1016.0 1016.0 0.0
19/09:30am 26.7 29.3 20.1 67 4.3 NNE 6 13 3 7 1015.2 1015.2 0.0
19/09:00am 26.1 28.8 20.7 72 3.5 N 7 13 4 7 1015.1 1015.1 0.0

Other Formats:

Comma delimited format used in spreadsheet applications
http://www.bom.gov.au/fwo/IDN60801/IDN60801.94765.axf

JavaScript Object Notation format (JSON) in row-major order
http://www.bom.gov.au/fwo/IDN60801/IDN60801.94765.json